sensor_id;sensor_type;location;lat;lon;timestamp;P1;durP1;ratioP1;P2;durP2;ratioP2
14235;SDS011;7202;50.718;7.072;2023-04-03T00:01:37;3.05;;;1.83;;
14235;SDS011;7202;50.718;7.072;2023-04-03T00:04:07;2.25;;;1.73;;
14235;SDS011;7202;50.718;7.072;2023-04-03T00:06:36;2.63;;;1.70;;
14235;SDS011;7202;50.718;7.072;2023-04-03T00:09:06;3.70;;;1.95;;
14235;SDS011;7202;50.718;7.072;2023-04-03T00:11:36;3.30;;;2.13;;
14235;SDS011;7202;50.718;7.072;2023-04-03T00:14:05;2.58;;;1.67;;
14235;SDS011;7202;50.718;7.072;2023-04-03T00:16:33;2.60;;;1.90;;
14235;SDS011;7202;50.718;7.072;2023-04-03T00:19:02;2.60;;;1.83;;
14235;SDS011;7202;50.718;7.072;2023-04-03T00:21:30;3.85;;;2.00;;
14235;SDS011;7202;50.718;7.072;2023-04-03T00:23:59;4.90;;;2.22;;
14235;SDS011;7202;50.718;7.072;2023-04-03T00:26:29;3.05;;;1.80;;
14235;SDS011;7202;50.718;7.072;2023-04-03T00:28:57;1.95;;;1.52;;
14235;SDS011;7202;50.718;7.072;2023-04-03T00:31:26;5.38;;;2.72;;
14235;SDS011;7202;50.718;7.072;2023-04-03T00:33:55;3.22;;;1.90;;
14235;SDS011;7202;50.718;7.072;2023-04-03T00:36:24;2.97;;;1.85;;
14235;SDS011;7202;50.718;7.072;2023-04-03T00:38:53;4.70;;;1.92;;
14235;SDS011;7202;50.718;7.072;2023-04-03T00:41:22;5.22;;;1.98;;
14235;SDS011;7202;50.718;7.072;2023-04-03T00:43:52;4.40;;;2.08;;
14235;SDS011;7202;50.718;7.072;2023-04-03T00:46:21;3.42;;;2.05;;
14235;SDS011;7202;50.718;7.072;2023-04-03T00:48:49;6.75;;;1.80;;
14235;SDS011;7202;50.718;7.072;2023-04-03T00:51:19;4.78;;;1.80;;
14235;SDS011;7202;50.718;7.072;2023-04-03T00:53:52;4.70;;;1.77;;
14235;SDS011;7202;50.718;7.072;2023-04-03T00:56:25;3.58;;;1.90;;
14235;SDS011;7202;50.718;7.072;2023-04-03T00:58:58;2.50;;;1.80;;
14235;SDS011;7202;50.718;7.072;2023-04-03T01:01:29;2.72;;;1.98;;
14235;SDS011;7202;50.718;7.072;2023-04-03T01:03:58;3.13;;;1.98;;
14235;SDS011;7202;50.718;7.072;2023-04-03T01:06:30;2.95;;;2.10;;
14235;SDS011;7202;50.718;7.072;2023-04-03T01:09:05;5.00;;;2.03;;
14235;SDS011;7202;50.718;7.072;2023-04-03T01:11:34;3.50;;;2.13;;
14235;SDS011;7202;50.718;7.072;2023-04-03T01:14:04;2.88;;;2.10;;
14235;SDS011;7202;50.718;7.072;2023-04-03T01:16:33;3.97;;;1.80;;
14235;SDS011;7202;50.718;7.072;2023-04-03T01:19:02;3.28;;;2.15;;
14235;SDS011;7202;50.718;7.072;2023-04-03T01:21:49;5.97;;;2.20;;
14235;SDS011;7202;50.718;7.072;2023-04-03T01:24:41;3.63;;;1.83;;
14235;SDS011;7202;50.718;7.072;2023-04-03T01:27:10;6.68;;;2.03;;
14235;SDS011;7202;50.718;7.072;2023-04-03T01:29:41;4.57;;;2.22;;
14235;SDS011;7202;50.718;7.072;2023-04-03T01:32:12;3.33;;;2.00;;
14235;SDS011;7202;50.718;7.072;2023-04-03T01:34:41;5.00;;;2.15;;
14235;SDS011;7202;50.718;7.072;2023-04-03T01:37:10;3.47;;;1.90;;
14235;SDS011;7202;50.718;7.072;2023-04-03T01:39:39;4.57;;;2.20;;
14235;SDS011;7202;50.718;7.072;2023-04-03T01:42:08;5.15;;;2.30;;
14235;SDS011;7202;50.718;7.072;2023-04-03T01:44:39;3.10;;;2.17;;
14235;SDS011;7202;50.718;7.072;2023-04-03T01:47:08;3.97;;;2.30;;
14235;SDS011;7202;50.718;7.072;2023-04-03T01:49:40;4.90;;;2.58;;
14235;SDS011;7202;50.718;7.072;2023-04-03T01:52:08;3.38;;;2.13;;
14235;SDS011;7202;50.718;7.072;2023-04-03T01:54:37;2.17;;;1.90;;
14235;SDS011;7202;50.718;7.072;2023-04-03T01:57:05;4.10;;;2.80;;
14235;SDS011;7202;50.718;7.072;2023-04-03T01:59:35;4.32;;;2.80;;
14235;SDS011;7202;50.718;7.072;2023-04-03T02:02:04;3.38;;;2.42;;
14235;SDS011;7202;50.718;7.072;2023-04-03T02:04:32;5.32;;;2.35;;
14235;SDS011;7202;50.718;7.072;2023-04-03T02:07:02;3.90;;;2.40;;
14235;SDS011;7202;50.718;7.072;2023-04-03T02:09:32;4.40;;;2.40;;
14235;SDS011;7202;50.718;7.072;2023-04-03T02:12:02;2.95;;;2.20;;
14235;SDS011;7202;50.718;7.072;2023-04-03T02:14:32;3.08;;;2.50;;
14235;SDS011;7202;50.718;7.072;2023-04-03T02:17:01;2.42;;;2.20;;
14235;SDS011;7202;50.718;7.072;2023-04-03T02:19:31;4.97;;;2.25;;
14235;SDS011;7202;50.718;7.072;2023-04-03T02:22:00;4.00;;;2.33;;
14235;SDS011;7202;50.718;7.072;2023-04-03T02:24:30;4.20;;;1.83;;
14235;SDS011;7202;50.718;7.072;2023-04-03T02:26:59;3.83;;;3.03;;
14235;SDS011;7202;50.718;7.072;2023-04-03T02:29:28;3.83;;;2.35;;
14235;SDS011;7202;50.718;7.072;2023-04-03T02:31:57;3.63;;;2.42;;
14235;SDS011;7202;50.718;7.072;2023-04-03T02:34:26;4.18;;;2.33;;
14235;SDS011;7202;50.718;7.072;2023-04-03T02:36:56;2.70;;;1.95;;
14235;SDS011;7202;50.718;7.072;2023-04-03T02:39:25;4.43;;;2.20;;
14235;SDS011;7202;50.718;7.072;2023-04-03T02:41:56;2.50;;;2.20;;
14235;SDS011;7202;50.718;7.072;2023-04-03T02:44:25;3.35;;;2.22;;
14235;SDS011;7202;50.718;7.072;2023-04-03T02:46:53;5.75;;;2.45;;
14235;SDS011;7202;50.718;7.072;2023-04-03T02:49:22;3.72;;;2.05;;
14235;SDS011;7202;50.718;7.072;2023-04-03T02:51:51;3.13;;;2.30;;
14235;SDS011;7202;50.718;7.072;2023-04-03T02:54:20;3.08;;;2.10;;
14235;SDS011;7202;50.718;7.072;2023-04-03T02:56:53;3.25;;;2.13;;
14235;SDS011;7202;50.718;7.072;2023-04-03T02:59:23;3.58;;;2.15;;
14235;SDS011;7202;50.718;7.072;2023-04-03T03:01:52;3.20;;;2.25;;
14235;SDS011;7202;50.718;7.072;2023-04-03T03:04:22;5.45;;;2.58;;
14235;SDS011;7202;50.718;7.072;2023-04-03T03:06:51;2.78;;;2.15;;
14235;SDS011;7202;50.718;7.072;2023-04-03T03:09:20;4.20;;;2.58;;
14235;SDS011;7202;50.718;7.072;2023-04-03T03:11:49;3.53;;;2.20;;
14235;SDS011;7202;50.718;7.072;2023-04-03T03:14:17;4.28;;;1.90;;
14235;SDS011;7202;50.718;7.072;2023-04-03T03:16:47;7.32;;;2.08;;
14235;SDS011;7202;50.718;7.072;2023-04-03T03:19:16;3.25;;;2.40;;
14235;SDS011;7202;50.718;7.072;2023-04-03T03:21:45;5.30;;;2.25;;
14235;SDS011;7202;50.718;7.072;2023-04-03T03:24:14;7.20;;;2.50;;
14235;SDS011;7202;50.718;7.072;2023-04-03T03:26:43;3.65;;;2.33;;
14235;SDS011;7202;50.718;7.072;2023-04-03T03:29:11;3.20;;;2.50;;
14235;SDS011;7202;50.718;7.072;2023-04-03T03:31:40;4.43;;;3.05;;
14235;SDS011;7202;50.718;7.072;2023-04-03T03:34:10;3.40;;;2.35;;
14235;SDS011;7202;50.718;7.072;2023-04-03T03:36:39;4.28;;;2.50;;
14235;SDS011;7202;50.718;7.072;2023-04-03T03:39:08;5.03;;;2.92;;
14235;SDS011;7202;50.718;7.072;2023-04-03T03:41:36;3.17;;;2.22;;
14235;SDS011;7202;50.718;7.072;2023-04-03T03:44:05;3.10;;;2.38;;
14235;SDS011;7202;50.718;7.072;2023-04-03T03:46:34;3.15;;;2.30;;
14235;SDS011;7202;50.718;7.072;2023-04-03T03:49:03;4.35;;;2.28;;
14235;SDS011;7202;50.718;7.072;2023-04-03T03:51:34;6.15;;;2.10;;
14235;SDS011;7202;50.718;7.072;2023-04-03T03:54:03;2.90;;;2.25;;
14235;SDS011;7202;50.718;7.072;2023-04-03T03:56:32;4.97;;;2.55;;
14235;SDS011;7202;50.718;7.072;2023-04-03T03:59:01;3.30;;;2.22;;
14235;SDS011;7202;50.718;7.072;2023-04-03T04:01:31;3.30;;;2.25;;
14235;SDS011;7202;50.718;7.072;2023-04-03T04:04:01;4.60;;;2.47;;
14235;SDS011;7202;50.718;7.072;2023-04-03T04:06:31;3.30;;;2.58;;
14235;SDS011;7202;50.718;7.072;2023-04-03T04:09:05;3.42;;;2.60;;
14235;SDS011;7202;50.718;7.072;2023-04-03T04:11:33;3.33;;;2.38;;
14235;SDS011;7202;50.718;7.072;2023-04-03T04:14:03;3.45;;;2.53;;
14235;SDS011;7202;50.718;7.072;2023-04-03T04:16:31;2.42;;;2.13;;
14235;SDS011;7202;50.718;7.072;2023-04-03T04:19:06;5.30;;;2.60;;
14235;SDS011;7202;50.718;7.072;2023-04-03T04:21:36;4.45;;;2.42;;
14235;SDS011;7202;50.718;7.072;2023-04-03T04:24:07;6.07;;;2.67;;
14235;SDS011;7202;50.718;7.072;2023-04-03T04:26:37;6.43;;;2.50;;
14235;SDS011;7202;50.718;7.072;2023-04-03T04:29:09;3.15;;;2.53;;
14235;SDS011;7202;50.718;7.072;2023-04-03T04:31:38;4.00;;;2.17;;
14235;SDS011;7202;50.718;7.072;2023-04-03T04:34:07;3.10;;;2.35;;
14235;SDS011;7202;50.718;7.072;2023-04-03T04:36:37;3.47;;;2.50;;
14235;SDS011;7202;50.718;7.072;2023-04-03T04:39:07;5.15;;;2.60;;
14235;SDS011;7202;50.718;7.072;2023-04-03T04:41:36;4.22;;;2.38;;
14235;SDS011;7202;50.718;7.072;2023-04-03T04:44:06;3.75;;;2.20;;
14235;SDS011;7202;50.718;7.072;2023-04-03T04:46:35;4.18;;;2.92;;
14235;SDS011;7202;50.718;7.072;2023-04-03T04:49:06;3.28;;;2.45;;
14235;SDS011;7202;50.718;7.072;2023-04-03T04:51:35;4.30;;;2.30;;
14235;SDS011;7202;50.718;7.072;2023-04-03T04:54:20;3.17;;;2.70;;
14235;SDS011;7202;50.718;7.072;2023-04-03T04:56:49;4.57;;;2.63;;
14235;SDS011;7202;50.718;7.072;2023-04-03T04:59:19;3.38;;;2.38;;
14235;SDS011;7202;50.718;7.072;2023-04-03T05:01:50;3.80;;;2.60;;
14235;SDS011;7202;50.718;7.072;2023-04-03T05:04:18;4.43;;;2.60;;
14235;SDS011;7202;50.718;7.072;2023-04-03T05:06:52;9.23;;;2.60;;
14235;SDS011;7202;50.718;7.072;2023-04-03T05:09:25;7.80;;;2.90;;
14235;SDS011;7202;50.718;7.072;2023-04-03T05:11:55;4.45;;;2.65;;
14235;SDS011;7202;50.718;7.072;2023-04-03T05:14:27;5.13;;;3.08;;
14235;SDS011;7202;50.718;7.072;2023-04-03T05:17:00;5.40;;;3.03;;
14235;SDS011;7202;50.718;7.072;2023-04-03T05:19:33;4.88;;;2.58;;
14235;SDS011;7202;50.718;7.072;2023-04-03T05:22:03;4.15;;;2.35;;
14235;SDS011;7202;50.718;7.072;2023-04-03T05:24:33;4.53;;;2.20;;
14235;SDS011;7202;50.718;7.072;2023-04-03T05:27:03;7.20;;;2.90;;
14235;SDS011;7202;50.718;7.072;2023-04-03T05:29:35;4.50;;;2.95;;
14235;SDS011;7202;50.718;7.072;2023-04-03T05:32:04;8.30;;;2.70;;
14235;SDS011;7202;50.718;7.072;2023-04-03T05:34:33;3.53;;;2.00;;
14235;SDS011;7202;50.718;7.072;2023-04-03T05:37:03;3.67;;;2.25;;
14235;SDS011;7202;50.718;7.072;2023-04-03T05:39:34;3.70;;;2.50;;
14235;SDS011;7202;50.718;7.072;2023-04-03T05:42:05;5.70;;;2.83;;
14235;SDS011;7202;50.718;7.072;2023-04-03T05:44:34;5.70;;;2.90;;
14235;SDS011;7202;50.718;7.072;2023-04-03T05:47:03;4.05;;;2.58;;
14235;SDS011;7202;50.718;7.072;2023-04-03T05:49:33;8.65;;;2.85;;
14235;SDS011;7202;50.718;7.072;2023-04-03T05:52:01;2.85;;;2.10;;
14235;SDS011;7202;50.718;7.072;2023-04-03T05:54:31;6.03;;;2.35;;
14235;SDS011;7202;50.718;7.072;2023-04-03T05:57:12;2.50;;;1.90;;
14235;SDS011;7202;50.718;7.072;2023-04-03T05:59:41;5.05;;;2.17;;
14235;SDS011;7202;50.718;7.072;2023-04-03T06:02:11;6.95;;;2.70;;
14235;SDS011;7202;50.718;7.072;2023-04-03T06:04:42;3.03;;;2.00;;
14235;SDS011;7202;50.718;7.072;2023-04-03T06:07:12;4.53;;;2.17;;
14235;SDS011;7202;50.718;7.072;2023-04-03T06:09:44;3.53;;;2.03;;
14235;SDS011;7202;50.718;7.072;2023-04-03T06:12:13;5.53;;;2.10;;
14235;SDS011;7202;50.718;7.072;2023-04-03T06:14:42;3.03;;;2.15;;
14235;SDS011;7202;50.718;7.072;2023-04-03T06:17:13;3.38;;;2.10;;
14235;SDS011;7202;50.718;7.072;2023-04-03T06:19:43;3.17;;;2.08;;
14235;SDS011;7202;50.718;7.072;2023-04-03T06:22:12;3.83;;;1.80;;
14235;SDS011;7202;50.718;7.072;2023-04-03T06:24:41;3.15;;;1.80;;
14235;SDS011;7202;50.718;7.072;2023-04-03T06:27:12;3.33;;;1.83;;
14235;SDS011;7202;50.718;7.072;2023-04-03T06:29:40;5.22;;;1.80;;
14235;SDS011;7202;50.718;7.072;2023-04-03T06:32:10;3.45;;;1.83;;
14235;SDS011;7202;50.718;7.072;2023-04-03T06:34:38;3.08;;;1.55;;
14235;SDS011;7202;50.718;7.072;2023-04-03T06:37:10;4.15;;;1.92;;
14235;SDS011;7202;50.718;7.072;2023-04-03T06:39:41;5.63;;;2.00;;
14235;SDS011;7202;50.718;7.072;2023-04-03T06:42:11;3.55;;;1.83;;
14235;SDS011;7202;50.718;7.072;2023-04-03T06:44:51;3.53;;;1.60;;
14235;SDS011;7202;50.718;7.072;2023-04-03T06:47:21;3.40;;;1.88;;
14235;SDS011;7202;50.718;7.072;2023-04-03T06:49:50;2.50;;;1.55;;
14235;SDS011;7202;50.718;7.072;2023-04-03T06:52:18;3.88;;;1.63;;
14235;SDS011;7202;50.718;7.072;2023-04-03T06:54:47;4.00;;;1.48;;
14235;SDS011;7202;50.718;7.072;2023-04-03T06:57:17;2.13;;;1.50;;
14235;SDS011;7202;50.718;7.072;2023-04-03T06:59:46;6.97;;;1.63;;
14235;SDS011;7202;50.718;7.072;2023-04-03T07:02:15;1.95;;;1.58;;
14235;SDS011;7202;50.718;7.072;2023-04-03T07:04:43;1.67;;;1.38;;
14235;SDS011;7202;50.718;7.072;2023-04-03T07:07:12;2.70;;;1.40;;
14235;SDS011;7202;50.718;7.072;2023-04-03T07:09:41;3.97;;;1.60;;
14235;SDS011;7202;50.718;7.072;2023-04-03T07:12:11;3.03;;;1.52;;
14235;SDS011;7202;50.718;7.072;2023-04-03T07:14:41;3.28;;;1.60;;
14235;SDS011;7202;50.718;7.072;2023-04-03T07:17:09;3.97;;;1.50;;
14235;SDS011;7202;50.718;7.072;2023-04-03T07:19:38;3.65;;;1.50;;
14235;SDS011;7202;50.718;7.072;2023-04-03T07:22:06;4.68;;;1.65;;
14235;SDS011;7202;50.718;7.072;2023-04-03T07:24:35;8.32;;;1.70;;
14235;SDS011;7202;50.718;7.072;2023-04-03T07:27:05;3.80;;;1.67;;
14235;SDS011;7202;50.718;7.072;2023-04-03T07:29:35;5.20;;;1.70;;
14235;SDS011;7202;50.718;7.072;2023-04-03T07:32:05;4.63;;;1.50;;
14235;SDS011;7202;50.718;7.072;2023-04-03T07:34:34;2.90;;;1.42;;
14235;SDS011;7202;50.718;7.072;2023-04-03T07:37:03;2.60;;;1.13;;
14235;SDS011;7202;50.718;7.072;2023-04-03T07:39:31;4.72;;;1.52;;
14235;SDS011;7202;50.718;7.072;2023-04-03T07:42:00;5.18;;;1.55;;
14235;SDS011;7202;50.718;7.072;2023-04-03T07:44:29;2.65;;;1.48;;
14235;SDS011;7202;50.718;7.072;2023-04-03T07:46:58;4.75;;;1.60;;
14235;SDS011;7202;50.718;7.072;2023-04-03T07:49:28;3.45;;;1.35;;
14235;SDS011;7202;50.718;7.072;2023-04-03T07:51:56;5.05;;;1.58;;
14235;SDS011;7202;50.718;7.072;2023-04-03T07:54:25;1.83;;;1.30;;
14235;SDS011;7202;50.718;7.072;2023-04-03T07:56:54;4.60;;;1.58;;
14235;SDS011;7202;50.718;7.072;2023-04-03T07:59:23;4.35;;;1.33;;
14235;SDS011;7202;50.718;7.072;2023-04-03T08:01:52;4.78;;;1.60;;
14235;SDS011;7202;50.718;7.072;2023-04-03T08:04:21;4.78;;;1.83;;
14235;SDS011;7202;50.718;7.072;2023-04-03T08:06:51;5.00;;;1.73;;
14235;SDS011;7202;50.718;7.072;2023-04-03T08:09:19;4.45;;;1.65;;
14235;SDS011;7202;50.718;7.072;2023-04-03T08:11:48;7.50;;;1.70;;
14235;SDS011;7202;50.718;7.072;2023-04-03T08:14:20;4.20;;;1.25;;
14235;SDS011;7202;50.718;7.072;2023-04-03T08:16:49;4.97;;;1.60;;
14235;SDS011;7202;50.718;7.072;2023-04-03T08:19:18;4.63;;;1.50;;
14235;SDS011;7202;50.718;7.072;2023-04-03T08:21:54;4.85;;;1.60;;
14235;SDS011;7202;50.718;7.072;2023-04-03T08:24:23;5.25;;;1.75;;
14235;SDS011;7202;50.718;7.072;2023-04-03T08:26:52;3.97;;;1.48;;
14235;SDS011;7202;50.718;7.072;2023-04-03T08:29:21;5.35;;;1.42;;
14235;SDS011;7202;50.718;7.072;2023-04-03T08:31:49;3.70;;;1.70;;
14235;SDS011;7202;50.718;7.072;2023-04-03T08:34:19;5.85;;;1.77;;
14235;SDS011;7202;50.718;7.072;2023-04-03T08:36:48;3.75;;;1.40;;
14235;SDS011;7202;50.718;7.072;2023-04-03T08:39:18;3.58;;;1.60;;
14235;SDS011;7202;50.718;7.072;2023-04-03T08:41:47;3.80;;;1.58;;
14235;SDS011;7202;50.718;7.072;2023-04-03T08:44:17;3.22;;;1.67;;
14235;SDS011;7202;50.718;7.072;2023-04-03T08:47:02;2.42;;;1.30;;
14235;SDS011;7202;50.718;7.072;2023-04-03T08:49:39;3.35;;;1.30;;
14235;SDS011;7202;50.718;7.072;2023-04-03T08:52:15;3.45;;;1.20;;
14235;SDS011;7202;50.718;7.072;2023-04-03T08:54:49;2.05;;;1.15;;
14235;SDS011;7202;50.718;7.072;2023-04-03T08:57:23;5.10;;;1.48;;
14235;SDS011;7202;50.718;7.072;2023-04-03T08:59:57;4.32;;;1.73;;
14235;SDS011;7202;50.718;7.072;2023-04-03T09:02:31;2.65;;;1.20;;
14235;SDS011;7202;50.718;7.072;2023-04-03T09:05:05;4.07;;;1.50;;
14235;SDS011;7202;50.718;7.072;2023-04-03T09:07:42;3.42;;;1.35;;
14235;SDS011;7202;50.718;7.072;2023-04-03T09:10:18;5.38;;;1.50;;
14235;SDS011;7202;50.718;7.072;2023-04-03T09:12:53;1.95;;;1.20;;
14235;SDS011;7202;50.718;7.072;2023-04-03T09:15:27;2.97;;;1.20;;
14235;SDS011;7202;50.718;7.072;2023-04-03T09:18:06;2.03;;;1.48;;
14235;SDS011;7202;50.718;7.072;2023-04-03T09:20:45;4.28;;;1.40;;
14235;SDS011;7202;50.718;7.072;2023-04-03T09:23:20;2.88;;;1.38;;
14235;SDS011;7202;50.718;7.072;2023-04-03T09:25:54;4.18;;;1.30;;
14235;SDS011;7202;50.718;7.072;2023-04-03T09:28:31;4.28;;;1.58;;
14235;SDS011;7202;50.718;7.072;2023-04-03T09:31:16;3.72;;;1.48;;
14235;SDS011;7202;50.718;7.072;2023-04-03T09:33:49;8.05;;;2.10;;
14235;SDS011;7202;50.718;7.072;2023-04-03T09:36:42;3.72;;;1.52;;
14235;SDS011;7202;50.718;7.072;2023-04-03T09:39:13;3.90;;;1.45;;
14235;SDS011;7202;50.718;7.072;2023-04-03T09:41:55;2.40;;;1.50;;
14235;SDS011;7202;50.718;7.072;2023-04-03T09:44:28;4.10;;;1.50;;
14235;SDS011;7202;50.718;7.072;2023-04-03T09:46:58;3.53;;;1.60;;
14235;SDS011;7202;50.718;7.072;2023-04-03T09:49:27;2.50;;;1.30;;
14235;SDS011;7202;50.718;7.072;2023-04-03T09:51:55;4.15;;;1.25;;
14235;SDS011;7202;50.718;7.072;2023-04-03T09:54:31;3.28;;;1.13;;
14235;SDS011;7202;50.718;7.072;2023-04-03T09:57:06;7.55;;;1.67;;
14235;SDS011;7202;50.718;7.072;2023-04-03T09:59:40;2.15;;;1.10;;
14235;SDS011;7202;50.718;7.072;2023-04-03T10:02:30;4.82;;;1.45;;
14235;SDS011;7202;50.718;7.072;2023-04-03T10:05:02;2.78;;;1.30;;
14235;SDS011;7202;50.718;7.072;2023-04-03T10:07:36;3.35;;;1.50;;
14235;SDS011;7202;50.718;7.072;2023-04-03T10:10:16;4.20;;;1.10;;
14235;SDS011;7202;50.718;7.072;2023-04-03T10:12:48;2.40;;;1.27;;
14235;SDS011;7202;50.718;7.072;2023-04-03T10:15:31;1.50;;;1.10;;
14235;SDS011;7202;50.718;7.072;2023-04-03T10:18:05;2.55;;;1.10;;
14235;SDS011;7202;50.718;7.072;2023-04-03T10:20:50;4.15;;;1.20;;
14235;SDS011;7202;50.718;7.072;2023-04-03T10:23:21;3.42;;;1.10;;
14235;SDS011;7202;50.718;7.072;2023-04-03T10:25:55;5.75;;;1.58;;
14235;SDS011;7202;50.718;7.072;2023-04-03T10:28:43;1.73;;;0.85;;
14235;SDS011;7202;50.718;7.072;2023-04-03T10:31:21;3.13;;;1.23;;
14235;SDS011;7202;50.718;7.072;2023-04-03T10:33:57;2.40;;;1.00;;
14235;SDS011;7202;50.718;7.072;2023-04-03T10:36:34;2.72;;;1.15;;
14235;SDS011;7202;50.718;7.072;2023-04-03T10:39:13;4.70;;;1.20;;
14235;SDS011;7202;50.718;7.072;2023-04-03T10:41:54;1.50;;;1.00;;
14235;SDS011;7202;50.718;7.072;2023-04-03T10:44:56;1.65;;;1.02;;
14235;SDS011;7202;50.718;7.072;2023-04-03T10:47:44;2.33;;;1.10;;
14235;SDS011;7202;50.718;7.072;2023-04-03T10:50:26;1.55;;;1.00;;
14235;SDS011;7202;50.718;7.072;2023-04-03T10:53:04;2.35;;;1.20;;
14235;SDS011;7202;50.718;7.072;2023-04-03T10:55:41;1.52;;;0.98;;
14235;SDS011;7202;50.718;7.072;2023-04-03T10:58:17;1.73;;;1.05;;
14235;SDS011;7202;50.718;7.072;2023-04-03T11:00:50;3.67;;;0.95;;
14235;SDS011;7202;50.718;7.072;2023-04-03T11:03:24;1.73;;;0.70;;
14235;SDS011;7202;50.718;7.072;2023-04-03T11:05:59;2.45;;;0.90;;
14235;SDS011;7202;50.718;7.072;2023-04-03T11:08:32;2.10;;;1.20;;
14235;SDS011;7202;50.718;7.072;2023-04-03T11:11:04;3.70;;;1.02;;
14235;SDS011;7202;50.718;7.072;2023-04-03T11:13:37;2.15;;;1.00;;
14235;SDS011;7202;50.718;7.072;2023-04-03T11:16:11;3.15;;;0.80;;
14235;SDS011;7202;50.718;7.072;2023-04-03T11:18:44;1.77;;;1.10;;
14235;SDS011;7202;50.718;7.072;2023-04-03T11:21:19;1.98;;;1.20;;
14235;SDS011;7202;50.718;7.072;2023-04-03T11:23:52;3.08;;;1.15;;
14235;SDS011;7202;50.718;7.072;2023-04-03T11:26:26;1.63;;;0.85;;
14235;SDS011;7202;50.718;7.072;2023-04-03T11:28:58;3.90;;;1.27;;
14235;SDS011;7202;50.718;7.072;2023-04-03T11:31:36;2.85;;;0.93;;
14235;SDS011;7202;50.718;7.072;2023-04-03T11:34:16;3.22;;;1.10;;
14235;SDS011;7202;50.718;7.072;2023-04-03T11:36:55;4.32;;;1.00;;
14235;SDS011;7202;50.718;7.072;2023-04-03T11:39:28;2.60;;;1.13;;
14235;SDS011;7202;50.718;7.072;2023-04-03T11:42:13;3.80;;;1.50;;
14235;SDS011;7202;50.718;7.072;2023-04-03T11:44:43;2.20;;;1.05;;
14235;SDS011;7202;50.718;7.072;2023-04-03T11:47:43;1.73;;;1.20;;
14235;SDS011;7202;50.718;7.072;2023-04-03T11:53:03;2.97;;;1.20;;
14235;SDS011;7202;50.718;7.072;2023-04-03T11:55:57;2.10;;;1.25;;
14235;SDS011;7202;50.718;7.072;2023-04-03T11:58:28;1.50;;;0.82;;
14235;SDS011;7202;50.718;7.072;2023-04-03T12:01:02;3.95;;;1.30;;
14235;SDS011;7202;50.718;7.072;2023-04-03T12:12:59;2.17;;;1.05;;
14235;SDS011;7202;50.718;7.072;2023-04-03T12:24:35;2.88;;;1.20;;
14235;SDS011;7202;50.718;7.072;2023-04-03T12:27:17;3.80;;;1.00;;
14235;SDS011;7202;50.718;7.072;2023-04-03T12:29:52;3.13;;;0.90;;
14235;SDS011;7202;50.718;7.072;2023-04-03T12:32:31;3.38;;;1.00;;
14235;SDS011;7202;50.718;7.072;2023-04-03T12:35:18;2.58;;;1.23;;
14235;SDS011;7202;50.718;7.072;2023-04-03T12:37:57;1.10;;;0.80;;
14235;SDS011;7202;50.718;7.072;2023-04-03T12:40:47;2.45;;;1.08;;
14235;SDS011;7202;50.718;7.072;2023-04-03T12:43:33;2.58;;;1.17;;
14235;SDS011;7202;50.718;7.072;2023-04-03T12:46:11;2.50;;;0.80;;
14235;SDS011;7202;50.718;7.072;2023-04-03T12:48:47;2.05;;;1.00;;
14235;SDS011;7202;50.718;7.072;2023-04-03T12:51:18;1.60;;;0.93;;
14235;SDS011;7202;50.718;7.072;2023-04-03T12:53:49;4.50;;;1.00;;
14235;SDS011;7202;50.718;7.072;2023-04-03T12:56:23;2.22;;;1.20;;
14235;SDS011;7202;50.718;7.072;2023-04-03T12:58:53;3.03;;;0.88;;
14235;SDS011;7202;50.718;7.072;2023-04-03T13:01:24;3.00;;;1.00;;
14235;SDS011;7202;50.718;7.072;2023-04-03T13:03:54;3.83;;;1.10;;
14235;SDS011;7202;50.718;7.072;2023-04-03T13:06:26;3.33;;;0.90;;
14235;SDS011;7202;50.718;7.072;2023-04-03T13:08:58;2.55;;;1.20;;
14235;SDS011;7202;50.718;7.072;2023-04-03T13:11:32;1.50;;;0.80;;
14235;SDS011;7202;50.718;7.072;2023-04-03T13:14:05;2.50;;;1.08;;
14235;SDS011;7202;50.718;7.072;2023-04-03T13:16:52;3.17;;;0.90;;
14235;SDS011;7202;50.718;7.072;2023-04-03T13:19:22;1.70;;;1.02;;
14235;SDS011;7202;50.718;7.072;2023-04-03T13:21:57;1.45;;;1.10;;
14235;SDS011;7202;50.718;7.072;2023-04-03T13:24:31;2.88;;;1.30;;
14235;SDS011;7202;50.718;7.072;2023-04-03T13:27:05;1.73;;;1.00;;
14235;SDS011;7202;50.718;7.072;2023-04-03T13:29:35;2.58;;;1.17;;
14235;SDS011;7202;50.718;7.072;2023-04-03T13:32:06;4.22;;;1.20;;
14235;SDS011;7202;50.718;7.072;2023-04-03T13:34:36;1.73;;;0.98;;
14235;SDS011;7202;50.718;7.072;2023-04-03T13:37:06;1.63;;;1.10;;
14235;SDS011;7202;50.718;7.072;2023-04-03T13:39:55;1.80;;;1.05;;
14235;SDS011;7202;50.718;7.072;2023-04-03T13:42:27;4.10;;;1.50;;
14235;SDS011;7202;50.718;7.072;2023-04-03T13:45:16;4.05;;;1.35;;
14235;SDS011;7202;50.718;7.072;2023-04-03T13:47:48;2.97;;;1.30;;
14235;SDS011;7202;50.718;7.072;2023-04-03T13:50:18;1.73;;;1.20;;
14235;SDS011;7202;50.718;7.072;2023-04-03T13:52:50;3.63;;;1.20;;
14235;SDS011;7202;50.718;7.072;2023-04-03T13:55:22;1.95;;;1.08;;
14235;SDS011;7202;50.718;7.072;2023-04-03T13:57:55;3.33;;;1.20;;
14235;SDS011;7202;50.718;7.072;2023-04-03T14:00:27;2.47;;;1.20;;
14235;SDS011;7202;50.718;7.072;2023-04-03T14:03:07;2.83;;;1.33;;
14235;SDS011;7202;50.718;7.072;2023-04-03T14:05:41;1.92;;;1.00;;
14235;SDS011;7202;50.718;7.072;2023-04-03T14:08:09;3.10;;;1.23;;
14235;SDS011;7202;50.718;7.072;2023-04-03T14:10:38;2.63;;;1.50;;
14235;SDS011;7202;50.718;7.072;2023-04-03T14:13:10;7.07;;;1.30;;
14235;SDS011;7202;50.718;7.072;2023-04-03T14:15:41;1.95;;;1.25;;
14235;SDS011;7202;50.718;7.072;2023-04-03T14:18:11;3.13;;;1.25;;
14235;SDS011;7202;50.718;7.072;2023-04-03T14:20:41;4.68;;;1.25;;
14235;SDS011;7202;50.718;7.072;2023-04-03T14:23:10;2.83;;;1.40;;
14235;SDS011;7202;50.718;7.072;2023-04-03T14:25:39;1.98;;;1.10;;
14235;SDS011;7202;50.718;7.072;2023-04-03T14:28:14;3.38;;;1.20;;
14235;SDS011;7202;50.718;7.072;2023-04-03T14:30:46;1.90;;;1.27;;
14235;SDS011;7202;50.718;7.072;2023-04-03T14:33:17;2.45;;;1.15;;
14235;SDS011;7202;50.718;7.072;2023-04-03T14:35:48;5.25;;;1.40;;
14235;SDS011;7202;50.718;7.072;2023-04-03T14:38:20;2.22;;;1.27;;
14235;SDS011;7202;50.718;7.072;2023-04-03T14:40:52;2.78;;;1.40;;
14235;SDS011;7202;50.718;7.072;2023-04-03T14:43:33;2.20;;;1.38;;
14235;SDS011;7202;50.718;7.072;2023-04-03T14:46:02;4.00;;;1.30;;
14235;SDS011;7202;50.718;7.072;2023-04-03T14:48:31;3.17;;;1.40;;
14235;SDS011;7202;50.718;7.072;2023-04-03T14:50:59;1.45;;;1.00;;
14235;SDS011;7202;50.718;7.072;2023-04-03T14:53:32;1.60;;;1.00;;
14235;SDS011;7202;50.718;7.072;2023-04-03T14:56:09;1.50;;;1.00;;
14235;SDS011;7202;50.718;7.072;2023-04-03T14:58:41;1.88;;;1.27;;
14235;SDS011;7202;50.718;7.072;2023-04-03T15:01:10;1.95;;;1.25;;
14235;SDS011;7202;50.718;7.072;2023-04-03T15:03:41;3.05;;;1.20;;
14235;SDS011;7202;50.718;7.072;2023-04-03T15:06:10;2.25;;;1.23;;
14235;SDS011;7202;50.718;7.072;2023-04-03T15:08:40;4.22;;;1.30;;
14235;SDS011;7202;50.718;7.072;2023-04-03T15:11:10;5.28;;;1.38;;
14235;SDS011;7202;50.718;7.072;2023-04-03T15:13:39;2.50;;;1.25;;
14235;SDS011;7202;50.718;7.072;2023-04-03T15:16:13;4.90;;;1.30;;
14235;SDS011;7202;50.718;7.072;2023-04-03T15:18:44;2.13;;;1.25;;
14235;SDS011;7202;50.718;7.072;2023-04-03T15:21:15;2.63;;;1.58;;
14235;SDS011;7202;50.718;7.072;2023-04-03T15:23:43;2.10;;;1.00;;
14235;SDS011;7202;50.718;7.072;2023-04-03T15:26:12;4.25;;;1.63;;
14235;SDS011;7202;50.718;7.072;2023-04-03T15:28:43;4.57;;;1.20;;
14235;SDS011;7202;50.718;7.072;2023-04-03T15:31:13;1.50;;;1.00;;
14235;SDS011;7202;50.718;7.072;2023-04-03T15:33:41;3.13;;;1.25;;
14235;SDS011;7202;50.718;7.072;2023-04-03T15:36:10;2.85;;;1.30;;
14235;SDS011;7202;50.718;7.072;2023-04-03T15:38:59;1.77;;;1.20;;
14235;SDS011;7202;50.718;7.072;2023-04-03T15:41:27;4.25;;;1.42;;
14235;SDS011;7202;50.718;7.072;2023-04-03T15:43:57;2.13;;;1.10;;
14235;SDS011;7202;50.718;7.072;2023-04-03T15:46:26;3.28;;;1.38;;
14235;SDS011;7202;50.718;7.072;2023-04-03T15:48:55;3.63;;;1.40;;
14235;SDS011;7202;50.718;7.072;2023-04-03T15:51:23;2.80;;;1.35;;